Flight Track Log - Related Links

Times and Time Zones

All times are in EDT time to prevent confusion due to time zone crossing. See the CUA2586 flight status page for this flight to view local times or setup timezone preferences in your user account.

Time Position Orientation Groundspeed Altitude Reporting Facility
EDT Latitude Longitude Course Direction KTS MPH feet Rate Location/Type
Mon 07:22:00 AM 25.4032 118.0433 355° North  Level Estimated
Mon 07:23:00 AM 25.5106 118.0326 355° North  Level Estimated
Mon 07:24:00 AM 25.6180 118.0220 355° North  Level Estimated
Mon 07:25:00 AM 25.7254 118.0113 355° North  Level Estimated
Mon 07:26:00 AM 25.8328 118.0006 355° North  Level Estimated
Mon 07:27:00 AM 25.9401 117.9899 355° North  Level Estimated
Mon 07:28:00 AM 26.0475 117.9791 355° North  Level Estimated
Mon 07:29:00 AM 26.1549 117.9684 355° North  Level Estimated
Mon 07:30:00 AM 26.2623 117.9576 355° North  Level Estimated
Mon 07:31:00 AM 26.3697 117.9468 355° North  Level Estimated
Mon 07:32:00 AM 26.4771 117.9360 355° North  Level Estimated
Mon 07:33:00 AM 26.5845 117.9251 355° North  Level Estimated
Mon 07:34:00 AM 26.6919 117.9143 355° North  Level Estimated
Mon 07:35:00 AM 26.7992 117.9034 355° North  Level Estimated
Mon 07:36:00 AM 26.9066 117.8925 355° North  Level Estimated
Mon 07:37:00 AM 27.0140 117.8816 355° North  Level Estimated
Mon 07:38:00 AM 27.1214 117.8706 355° North  Level Estimated
Mon 07:39:00 AM 27.2288 117.8597 355° North  Level Estimated
Mon 07:40:00 AM 27.3361 117.8487 355° North  Level Estimated
Mon 07:41:00 AM 27.4435 117.8377 355° North  Level Estimated
Mon 07:42:00 AM 27.5509 117.8266 355° North  Level Estimated
Mon 07:43:00 AM 27.6583 117.8156 355° North  Level Estimated
Mon 07:44:00 AM 27.7657 117.8045 355° North  Level Estimated
Mon 07:45:00 AM 27.8730 117.7934 355° North  Level Estimated
Mon 07:46:00 AM 27.9804 117.7823 355° North  Level Estimated
Mon 07:47:00 AM 28.0878 117.7712 355° North  Level Estimated
Mon 07:48:00 AM 28.1951 117.7600 355° North  Level Estimated
Mon 07:49:00 AM 28.3025 117.7488 355° North  Level Estimated
Mon 07:50:00 AM 28.4099 117.7376 355° North  Level Estimated
Mon 07:51:00 AM 28.5173 117.7264 355° North  Level Estimated
Mon 07:52:00 AM 28.6246 117.7151 355° North  Level Estimated
Mon 07:53:00 AM 28.7320 117.7039 355° North  Level Estimated
Mon 07:54:00 AM 28.8394 117.6926 355° North  Level Estimated
Mon 07:55:00 AM 28.9467 117.6813 355° North  Level Estimated
Mon 07:56:00 AM 29.0541 117.6699 355° North  Level Estimated
Mon 07:57:00 AM 29.1614 117.6585 355° North  Level Estimated
Mon 07:58:00 AM 29.2688 117.6471 355° North  Level Estimated
Mon 07:59:00 AM 29.3762 117.6357 355° North  Level Estimated
Mon 08:00:00 AM 29.4835 117.6243 355° North  Level Estimated
Mon 08:01:00 AM 29.5909 117.6128 355° North  Level Estimated
Mon 08:02:00 AM 29.6982 117.6013 355° North  Level Estimated
Mon 08:03:00 AM 29.8056 117.5898 355° North  Level Estimated
Mon 08:04:00 AM 29.9130 117.5783 355° North  Level Estimated
Mon 08:05:00 AM 30.0203 117.5667 355° North  Level Estimated
Mon 08:06:00 AM 30.1277 117.5552 355° North  Level Estimated
Mon 08:07:00 AM 30.2350 117.5435 355° North  Level Estimated
Mon 08:08:00 AM 30.3424 117.5319 355° North  Level Estimated
Mon 08:09:00 AM 30.4497 117.5202 355° North  Level Estimated
Mon 08:10:00 AM 30.5571 117.5086 355° North  Level Estimated
Mon 08:11:00 AM 30.6644 117.4968 355° North  Level Estimated
Mon 08:12:00 AM 30.7718 117.4851 355° North  Level Estimated
Mon 08:13:00 AM 30.8791 117.4733 355° North  Level Estimated
Mon 08:14:00 AM 30.9865 117.4615 355° North  Level Estimated
Mon 08:15:00 AM 31.0938 117.4497 355° North  Level Estimated
Mon 08:16:00 AM 31.2012 117.4379 355° North  Level Estimated
Mon 08:17:00 AM 31.3085 117.4260 355° North  Level Estimated
Mon 08:18:00 AM 31.4158 117.4141 355° North  Level Estimated
Mon 08:19:00 AM 31.5232 117.4022 355° North  Level Estimated
Mon 08:20:00 AM 31.6305 117.3902 355° North  Level Estimated
Mon 08:21:00 AM 31.7379 117.3782 355° North  Level Estimated
Mon 08:22:00 AM 31.8452 117.3662 355° North  Level Estimated
Mon 08:23:00 AM 31.9526 117.3542 355° North  Level Estimated
Mon 08:24:00 AM 32.0599 117.3421 355° North  Level Estimated
Mon 08:25:00 AM 32.1672 117.3300 355° North  Level Estimated
Mon 08:26:00 AM 32.2746 117.3179 355° North  Level Estimated
Mon 08:27:00 AM 32.3819 117.3057 355° North  Level Estimated
Mon 08:28:00 AM 32.4892 117.2936 355° North  Level Estimated
Mon 08:29:00 AM 32.5965 117.2813 355° North  Level Estimated
Mon 08:30:00 AM 32.7039 117.2691 355° North  Level Estimated
Mon 08:31:00 AM 32.8112 117.2568 355° North  Level Estimated
Mon 08:32:00 AM 32.9185 117.2445 355° North  Level Estimated
Mon 08:33:00 AM 33.0258 117.2322 354° North  Level Estimated
Mon 08:34:00 AM 33.1332 117.2198 354° North  Level Estimated
Mon 08:35:00 AM 33.2405 117.2075 354° North  Level Estimated
Mon 08:36:00 AM 33.3478 117.1950 354° North  Level Estimated
Mon 08:37:00 AM 33.4551 117.1826 354° North  Level Estimated
Mon 08:38:00 AM 33.5625 117.1701 354° North  Level Estimated
Mon 08:39:00 AM 33.6698 117.1576 354° North  Level Estimated
Mon 08:40:00 AM 33.7771 117.1451 354° North  Level Estimated
Mon 08:41:00 AM 33.8844 117.1325 354° North  Level Estimated
Mon 08:42:00 AM 33.9917 117.1199 354° North  Level Estimated
Mon 08:43:00 AM 34.0990 117.1072 354° North  Level Estimated
Mon 08:44:00 AM 34.2063 117.0946 354° North  Level Estimated
Mon 08:45:00 AM 34.3136 117.0819 354° North  Level Estimated
Mon 08:46:00 AM 34.4210 117.0691 354° North  Level Estimated
Mon 08:47:00 AM 34.5283 117.0564 354° North  Level Estimated
Mon 08:48:00 AM 34.6356 117.0436 354° North  Level Estimated
Mon 08:49:00 AM 34.7429 117.0307 354° North  Level Estimated
Mon 08:50:00 AM 34.8502 117.0179 354° North  Level Estimated
Mon 08:51:00 AM 34.9575 117.0050 354° North  Level Estimated
Mon 08:52:00 AM 35.0648 116.9920 354° North  Level Estimated
Mon 08:53:00 AM 35.1721 116.9790 354° North  Level Estimated
Mon 08:54:00 AM 35.2794 116.9660 354° North  Level Estimated
Mon 08:55:00 AM 35.3867 116.9530 354° North  Level Estimated
Mon 08:56:00 AM 35.4940 116.9399 354° North  Level Estimated
Mon 08:57:00 AM 35.6012 116.9268 354° North  Level Estimated
Mon 08:58:00 AM 35.7085 116.9137 354° North  Level Estimated
Mon 08:59:00 AM 35.8158 116.9005 354° North  Level Estimated
Mon 09:00:00 AM 35.9231 116.8873 354° North  Level Estimated
Mon 09:01:00 AM 36.0304 116.8740 354° North  Level Estimated
Mon 09:02:00 AM 36.1377 116.8608 354° North  Level Estimated
Mon 09:03:00 AM 36.2450 116.8474 354° North  Level Estimated
Mon 09:04:00 AM 36.3523 116.8341 354° North  Level Estimated
Mon 09:05:00 AM 36.4595 116.8207 354° North  Level Estimated
Mon 09:06:00 AM 36.5668 116.8073 354° North  Level Estimated
Mon 09:07:00 AM 36.6741 116.7938 354° North  Level Estimated
Mon 09:08:00 AM 36.7814 116.7803 354° North  Level Estimated
Mon 09:09:00 AM 36.8887 116.7667 354° North  Level Estimated
Mon 09:10:00 AM 36.9959 116.7531 354° North  Level Estimated
Mon 09:11:00 AM 37.1032 116.7395 354° North  Level Estimated
Mon 09:12:00 AM 37.2105 116.7259 354° North  Level Estimated
Mon 09:13:00 AM 37.3177 116.7122 354° North  Level Estimated
Mon 09:14:00 AM 37.4250 116.6984 354° North  Level Estimated
Mon 09:15:00 AM 37.5323 116.6846 354° North  Level Estimated
Mon 09:16:00 AM 37.6395 116.6708 354° North  Level Estimated
Mon 09:17:00 AM 37.7468 116.6570 354° North  Level Estimated
Mon 09:18:00 AM 37.8541 116.6431 354° North  Level Estimated
Mon 09:19:00 AM 37.9613 116.6291 354° North  Level Estimated
Mon 09:20:00 AM 38.0686 116.6151 354° North  Level Estimated
Mon 09:21:00 AM 38.1758 116.6011 354° North  Level Estimated
Mon 09:22:00 AM 38.2831 116.5871 354° North  Level Estimated
Mon 09:23:00 AM 38.3903 116.5730 354° North  Level Estimated
Mon 09:24:00 AM 38.4976 116.5588 354° North  Level Estimated
Mon 09:25:00 AM 38.6048 116.5446 354° North  Level Estimated
Mon 09:26:00 AM 38.7121 116.5304 354° North  Level Estimated
Mon 09:27:00 AM 38.8193 116.5161 354° North  Level Estimated
Mon 09:28:00 AM 38.9266 116.5018 354° North  Level Estimated
Mon 09:29:00 AM 39.0338 116.4874 354° North  Level Estimated
Mon 09:30:00 AM 39.1411 116.4731 354° North  Level Estimated
Mon 09:31:00 AM 39.2483 116.4586 354° North  Level Estimated
Mon 09:32:00 AM 39.3555 116.4441 354° North  Level Estimated
Mon 09:33:00 AM 39.4628 116.4296 354° North  Level Estimated
Mon 09:34:00 AM 39.5700 116.4150 354° North  Level Estimated
Mon 09:35:00 AM 39.6772 116.4004 354° North  Level Estimated
Mon 09:36:00 AM 39.7794 116.3864 354° North  Level Estimated
Mon 09:37:00 AM 39.7794 116.3864 349° North  Level Estimated
Mon 09:38:00 AM 39.7794 116.3864 349° North  Level Estimated
Mon 09:39:00 AM 39.7794 116.3864 349° North  Level Estimated
Mon 09:40:00 AM 39.7794 116.3864 349° North  Level Estimated
Mon 09:41:00 AM 39.7794 116.3864 349° North  Level Estimated
Mon 09:42:00 AM 39.7794 116.3864 349° North  Level Estimated
Mon 09:43:00 AM 39.7794 116.3864 349° North  Level Estimated
Mon 09:44:00 AM 39.7794 116.3864 349° North  Level Estimated
Mon 09:45:00 AM 39.7794 116.3864 349° North  Level Estimated
Mon 09:46:00 AM 39.7794 116.3864 349° North  Level Estimated
Mon 09:47:00 AM 39.7794 116.3864 349° North  Level Estimated
Mon 09:48:00 AM 39.7794 116.3864 349° North  Level Estimated
Mon 09:49:00 AM 39.7794 116.3864 349° North  Level Estimated
Mon 09:50:00 AM 39.7794 116.3864 349° North  Level Estimated
Mon 09:51:00 AM 39.7794 116.3864 349° North  Level Estimated
Mon 09:52:00 AM 39.7794 116.3864 349° North  Level Estimated

Login

Don't have an account? Register now (free) for customized features, flight alerts, and more!